Time;durP1;ratioP1;P1;durP2;ratioP2;P2;SDS_P1;SDS_P2;PMS_P1;PMS_P2;Temp;Humidity;BMP_temperature;BMP_pressure;BME280_temperature;BME280_humidity;BME280_pressure;Samples;Min_cycle;Max_cycle;Signal;HPM_P1;HPM_P2
2022/03/28 00:07:22;;;;;;;19.23;7.80;;;;;;;;;;4959181;28;20513;-79
2022/03/28 00:09:50;;;;;;;24.17;8.65;;;;;;;;;;4957636;28;20062;-79
2022/03/28 00:12:18;;;;;;;21.50;7.82;;;;;;;;;;4959545;28;20113;-80
2022/03/28 00:14:46;;;;;;;17.17;7.88;;;;;;;;;;4949723;28;20259;-79
2022/03/28 00:17:14;;;;;;;21.10;7.93;;;;;;;;;;4939596;28;20084;-79
2022/03/28 00:19:42;;;;;;;19.80;7.70;;;;;;;;;;4948516;28;20473;-79
2022/03/28 00:22:10;;;;;;;18.23;8.18;;;;;;;;;;4997483;28;20045;-78
2022/03/28 00:24:38;;;;;;;18.48;8.18;;;;;;;;;;5010447;28;20049;-79
2022/03/28 00:27:06;;;;;;;19.83;7.05;;;;;;;;;;4998795;28;20077;-79
2022/03/28 00:29:40;;;;;;;17.80;7.43;;;;;;;;;;5014084;28;20042;-77
2022/03/28 00:32:08;;;;;;;21.92;8.43;;;;;;;;;;5016305;28;20065;-78
2022/03/28 00:35:21;;;;;;;20.17;8.50;;;;;;;;;;5009936;28;20049;-87
2022/03/28 00:38:47;;;;;;;22.25;8.48;;;;;;;;;;5016448;28;20049;-84
2022/03/28 00:43:08;;;;;;;20.67;8.50;;;;;;;;;;5013466;28;20523;-85
2022/03/28 00:47:02;;;;;;;18.85;8.60;;;;;;;;;;5009552;28;21663;-87
2022/03/28 00:51:34;;;;;;;16.98;6.57;;;;;;;;;;4993644;28;20046;-87
2022/03/28 00:56:14;;;;;;;18.75;7.53;;;;;;;;;;4870388;29;20052;-85
2022/03/28 01:01:30;;;;;;;16.67;6.93;;;;;;;;;;4838939;29;20097;-88
2022/03/28 01:06:17;;;;;;;15.25;6.30;;;;;;;;;;4751089;30;20122;-87
2022/03/28 02:20:29;;;;;;;14.70;6.38;;;;;;;;;;4736984;30;20131;-79
2022/03/28 02:22:56;;;;;;;19.73;7.72;;;;;;;;;;4745277;30;20126;-78
2022/03/28 02:25:24;;;;;;;16.02;7.40;;;;;;;;;;4745358;30;20060;-84
2022/03/28 02:27:53;;;;;;;18.02;7.68;;;;;;;;;;4749322;30;20063;-84
2022/03/28 02:30:20;;;;;;;20.60;7.47;;;;;;;;;;4746847;30;20514;-83
2022/03/28 02:32:51;;;;;;;17.60;7.28;;;;;;;;;;4744777;30;20064;-82
2022/03/28 02:35:24;;;;;;;20.50;8.02;;;;;;;;;;4744716;30;20284;-84
2022/03/28 02:37:52;;;;;;;24.42;9.10;;;;;;;;;;4737249;30;20642;-85
2022/03/28 02:40:20;;;;;;;19.90;8.27;;;;;;;;;;4774570;29;20063;-82
2022/03/28 03:10:45;;;;;;;20.23;8.70;;;;;;;;;;4891712;29;20076;-77
2022/03/28 03:13:12;;;;;;;22.80;8.90;;;;;;;;;;4895907;29;20135;-78
2022/03/28 03:15:40;;;;;;;21.00;8.50;;;;;;;;;;4896597;29;20041;-76
2022/03/28 03:18:09;;;;;;;22.13;9.60;;;;;;;;;;4895457;29;20443;-77
2022/03/28 03:20:38;;;;;;;21.35;9.05;;;;;;;;;;4893363;29;20700;-77
2022/03/28 03:23:06;;;;;;;19.48;8.93;;;;;;;;;;4910230;29;20187;-77
2022/03/28 03:25:35;;;;;;;18.00;8.15;;;;;;;;;;4907552;29;20598;-77
2022/03/28 03:28:03;;;;;;;12.88;5.95;;;;;;;;;;4908346;29;20044;-77
2022/03/28 03:30:30;;;;;;;15.40;6.35;;;;;;;;;;4917934;29;20114;-76
2022/03/28 03:32:58;;;;;;;14.35;6.03;;;;;;;;;;4968447;28;20067;-78
2022/03/28 03:35:26;;;;;;;13.40;5.88;;;;;;;;;;4968210;28;20050;-77
2022/03/28 03:37:54;;;;;;;15.40;6.05;;;;;;;;;;4950659;28;20523;-78
2022/03/28 03:40:26;;;;;;;18.25;6.18;;;;;;;;;;4969400;28;20046;-77
2022/03/28 03:42:54;;;;;;;12.10;5.40;;;;;;;;;;4990753;28;20072;-77
2022/03/28 03:45:22;;;;;;;12.45;5.25;;;;;;;;;;5016028;28;20915;-77
2022/03/28 03:47:51;;;;;;;14.82;5.60;;;;;;;;;;4998532;28;20127;-79
2022/03/28 03:50:18;;;;;;;10.13;4.40;;;;;;;;;;4995547;28;20525;-77
2022/03/28 03:53:26;;;;;;;13.15;5.65;;;;;;;;;;5015740;28;20053;-86
2022/03/28 04:02:33;;;;;;;9.30;3.45;;;;;;;;;;4930239;29;20107;-85
2022/03/28 04:07:13;;;;;;;6.47;3.13;;;;;;;;;;4869288;29;20499;-87
2022/03/28 04:10:02;;;;;;;10.88;3.03;;;;;;;;;;4873126;29;20100;-87
2022/03/28 04:13:35;;;;;;;6.53;2.63;;;;;;;;;;4870053;29;20072;-87
2022/03/28 04:18:07;;;;;;;7.80;3.17;;;;;;;;;;4833366;29;20161;-85
2022/03/28 04:22:10;;;;;;;8.02;3.47;;;;;;;;;;4816166;29;20086;-85
2022/03/28 04:30:30;;;;;;;8.13;3.22;;;;;;;;;;4800946;29;20188;-84
2022/03/28 04:35:04;;;;;;;7.68;3.17;;;;;;;;;;4802844;29;20055;-86
2022/03/28 04:44:48;;;;;;;6.28;3.15;;;;;;;;;;4823857;29;20116;-87
2022/03/28 04:49:36;;;;;;;6.97;2.80;;;;;;;;;;4838865;29;20302;-88
2022/03/28 05:11:46;;;;;;;6.45;3.38;;;;;;;;;;4837845;29;20615;-81
2022/03/28 05:14:14;;;;;;;8.25;2.97;;;;;;;;;;4837140;29;20060;-79
2022/03/28 05:16:42;;;;;;;8.88;3.65;;;;;;;;;;4818870;29;20146;-79
2022/03/28 05:19:10;;;;;;;7.03;3.13;;;;;;;;;;4785442;29;20059;-80
2022/03/28 05:21:38;;;;;;;6.70;3.03;;;;;;;;;;4790287;29;20075;-80
2022/03/28 05:24:08;;;;;;;5.28;2.08;;;;;;;;;;4784428;29;20536;-80
2022/03/28 05:26:40;;;;;;;4.15;1.90;;;;;;;;;;4783271;29;20047;-79
2022/03/28 05:29:08;;;;;;;5.50;2.42;;;;;;;;;;4815742;29;20116;-80
2022/03/28 05:31:36;;;;;;;5.75;2.22;;;;;;;;;;4865667;29;20277;-81
2022/03/28 05:34:04;;;;;;;5.53;2.80;;;;;;;;;;4905227;28;20054;-77
2022/03/28 05:36:32;;;;;;;7.30;2.58;;;;;;;;;;4964063;28;20075;-80
2022/03/28 05:39:01;;;;;;;4.50;2.35;;;;;;;;;;4969452;28;20162;-79
2022/03/28 05:41:28;;;;;;;6.15;2.35;;;;;;;;;;4969302;28;20525;-77
2022/03/28 05:44:02;;;;;;;4.75;2.13;;;;;;;;;;4996757;28;20049;-77
2022/03/28 05:46:30;;;;;;;4.57;1.85;;;;;;;;;;5006493;28;20034;-77
2022/03/28 05:48:59;;;;;;;5.80;1.95;;;;;;;;;;5007404;28;20046;-79
2022/03/28 05:51:33;;;;;;;5.47;1.73;;;;;;;;;;5012728;28;20045;-78
2022/03/28 05:54:10;;;;;;;4.45;1.50;;;;;;;;;;5003596;28;20118;-78
2022/03/28 05:56:38;;;;;;;3.03;1.45;;;;;;;;;;5004775;28;20044;-77
2022/03/28 05:59:09;;;;;;;3.70;1.60;;;;;;;;;;5006390;28;20574;-77
2022/03/28 06:01:37;;;;;;;4.60;1.65;;;;;;;;;;5010331;28;20152;-77
2022/03/28 06:04:04;;;;;;;7.05;1.90;;;;;;;;;;5004171;28;20149;-77
2022/03/28 06:06:33;;;;;;;6.07;2.63;;;;;;;;;;5009095;28;20522;-78
2022/03/28 06:09:01;;;;;;;6.25;2.33;;;;;;;;;;4993649;28;20120;-77
2022/03/28 06:11:28;;;;;;;5.10;2.45;;;;;;;;;;4970866;28;20056;-78
2022/03/28 06:13:59;;;;;;;5.15;2.15;;;;;;;;;;5000993;28;20147;-78
2022/03/28 06:16:26;;;;;;;4.43;1.75;;;;;;;;;;5006235;28;20041;-79
2022/03/28 06:18:54;;;;;;;4.20;1.92;;;;;;;;;;5009053;28;20045;-75
2022/03/28 06:21:22;;;;;;;6.55;2.40;;;;;;;;;;4996636;28;20080;-75
2022/03/28 06:23:51;;;;;;;6.78;2.80;;;;;;;;;;5004913;28;20052;-74
2022/03/28 06:26:20;;;;;;;7.72;2.70;;;;;;;;;;5004305;28;20029;-75
2022/03/28 06:28:49;;;;;;;7.72;3.33;;;;;;;;;;5011954;28;20053;-77
2022/03/28 06:31:16;;;;;;;6.78;3.30;;;;;;;;;;4981715;28;20077;-77
2022/03/28 06:33:44;;;;;;;7.82;3.30;;;;;;;;;;5007846;28;20430;-79
2022/03/28 06:36:12;;;;;;;8.18;3.90;;;;;;;;;;4992039;28;20038;-78
2022/03/28 06:38:40;;;;;;;10.27;3.80;;;;;;;;;;4993467;28;20040;-76
2022/03/28 06:41:09;;;;;;;9.70;3.78;;;;;;;;;;4991340;28;20401;-79
2022/03/28 06:43:36;;;;;;;10.82;3.75;;;;;;;;;;5000273;28;20046;-75
2022/03/28 06:46:04;;;;;;;9.75;3.80;;;;;;;;;;5006196;28;20048;-75
2022/03/28 06:48:32;;;;;;;8.32;3.75;;;;;;;;;;5003160;28;20048;-75
2022/03/28 06:51:01;;;;;;;8.13;3.90;;;;;;;;;;4995624;28;20656;-75
2022/03/28 06:53:28;;;;;;;10.18;3.67;;;;;;;;;;5007788;28;20050;-75
2022/03/28 06:55:56;;;;;;;7.63;3.45;;;;;;;;;;5006737;28;20048;-75
2022/03/28 06:58:24;;;;;;;8.10;3.20;;;;;;;;;;5006856;28;21559;-75
2022/03/28 07:00:53;;;;;;;6.22;2.92;;;;;;;;;;5009750;28;20033;-76
2022/03/28 07:03:24;;;;;;;9.13;3.30;;;;;;;;;;4998830;28;20056;-76
2022/03/28 07:05:52;;;;;;;8.93;3.33;;;;;;;;;;4997999;28;20057;-76
2022/03/28 07:08:20;;;;;;;7.72;3.95;;;;;;;;;;5005785;28;20838;-75
2022/03/28 07:10:49;;;;;;;7.88;3.95;;;;;;;;;;5010296;28;20066;-76
2022/03/28 07:13:16;;;;;;;8.90;4.07;;;;;;;;;;5010406;28;20046;-76
2022/03/28 07:15:44;;;;;;;7.53;4.00;;;;;;;;;;5009073;28;20453;-75
2022/03/28 07:18:19;;;;;;;6.95;3.42;;;;;;;;;;5004722;28;20061;-76
2022/03/28 07:20:46;;;;;;;7.32;3.45;;;;;;;;;;5008708;28;20099;-76
2022/03/28 07:23:14;;;;;;;7.00;3.75;;;;;;;;;;4995752;28;20048;-76
2022/03/28 07:25:42;;;;;;;8.90;3.47;;;;;;;;;;4988392;28;20053;-79
2022/03/28 07:28:12;;;;;;;7.65;3.47;;;;;;;;;;4990421;28;20886;-79
2022/03/28 07:30:40;;;;;;;7.15;3.40;;;;;;;;;;5010780;28;20983;-79
2022/03/28 07:33:08;;;;;;;7.35;2.92;;;;;;;;;;4985544;28;20380;-79
2022/03/28 07:35:37;;;;;;;6.78;2.90;;;;;;;;;;4993037;28;20120;-79
2022/03/28 07:38:10;;;;;;;6.82;3.08;;;;;;;;;;5003318;28;20038;-79
2022/03/28 07:40:45;;;;;;;6.07;2.78;;;;;;;;;;4995471;28;20045;-79
2022/03/28 07:43:12;;;;;;;5.93;2.70;;;;;;;;;;5007487;28;20037;-75
2022/03/28 07:45:40;;;;;;;9.98;3.30;;;;;;;;;;5005356;28;20046;-76
2022/03/28 07:48:08;;;;;;;6.45;3.00;;;;;;;;;;4972876;28;20061;-75
2022/03/28 07:50:36;;;;;;;6.57;3.03;;;;;;;;;;5007786;28;20472;-79
2022/03/28 07:53:05;;;;;;;6.13;2.53;;;;;;;;;;5007643;28;20132;-79
2022/03/28 07:55:32;;;;;;;6.57;2.92;;;;;;;;;;5015373;28;20080;-78
2022/03/28 07:58:02;;;;;;;4.60;2.10;;;;;;;;;;5002714;28;20089;-78
2022/03/28 08:00:30;;;;;;;4.85;2.42;;;;;;;;;;5003289;28;20046;-79
2022/03/28 08:02:59;;;;;;;6.05;2.45;;;;;;;;;;5012572;28;20446;-79
2022/03/28 08:05:27;;;;;;;6.00;2.45;;;;;;;;;;5006936;28;20057;-77
2022/03/28 08:07:54;;;;;;;8.45;2.63;;;;;;;;;;5007166;28;20042;-78
2022/03/28 08:10:23;;;;;;;5.43;2.80;;;;;;;;;;5004818;28;20046;-78
2022/03/28 08:12:53;;;;;;;6.25;2.80;;;;;;;;;;4996742;28;20044;-78
2022/03/28 08:15:22;;;;;;;5.35;2.60;;;;;;;;;;4992167;28;20084;-78
2022/03/28 08:17:50;;;;;;;4.90;2.50;;;;;;;;;;5000783;28;20144;-79
2022/03/28 08:20:18;;;;;;;5.00;2.72;;;;;;;;;;5010533;28;20437;-79
2022/03/28 08:22:49;;;;;;;5.32;2.67;;;;;;;;;;5010643;28;20077;-79
2022/03/28 08:25:20;;;;;;;4.88;2.20;;;;;;;;;;5014398;28;20045;-78
2022/03/28 08:27:49;;;;;;;5.60;2.40;;;;;;;;;;5019525;28;20074;-79
2022/03/28 08:30:17;;;;;;;6.10;2.85;;;;;;;;;;5007324;28;20049;-79
2022/03/28 08:32:47;;;;;;;6.38;2.55;;;;;;;;;;4982890;28;20137;-79
2022/03/28 08:35:15;;;;;;;5.57;2.67;;;;;;;;;;5007118;28;20069;-79
2022/03/28 08:37:43;;;;;;;5.50;2.67;;;;;;;;;;5004957;28;20066;-79
2022/03/28 08:40:14;;;;;;;8.13;2.83;;;;;;;;;;5006202;28;20065;-79
2022/03/28 08:42:42;;;;;;;5.68;2.97;;;;;;;;;;5006392;28;20129;-79
2022/03/28 08:45:13;;;;;;;5.65;3.10;;;;;;;;;;4998154;28;20369;-79
2022/03/28 08:47:45;;;;;;;5.53;2.88;;;;;;;;;;4997422;28;20045;-79
2022/03/28 08:50:34;;;;;;;5.97;2.90;;;;;;;;;;5005633;28;20470;-79
2022/03/28 08:53:04;;;;;;;6.85;3.35;;;;;;;;;;5005060;28;20034;-78
2022/03/28 08:55:33;;;;;;;6.47;3.15;;;;;;;;;;5001403;28;20037;-78
2022/03/28 08:58:00;;;;;;;5.50;3.15;;;;;;;;;;4992448;28;20037;-78
2022/03/28 09:00:28;;;;;;;6.10;3.03;;;;;;;;;;5005082;28;20061;-78
2022/03/28 09:02:57;;;;;;;7.22;3.25;;;;;;;;;;5002145;28;20406;-78
2022/03/28 09:05:30;;;;;;;6.53;3.42;;;;;;;;;;4992618;28;20141;-79
2022/03/28 09:08:02;;;;;;;11.90;3.67;;;;;;;;;;4996459;28;20050;-75
2022/03/28 09:10:36;;;;;;;5.38;2.85;;;;;;;;;;5004594;28;20103;-78
2022/03/28 09:13:08;;;;;;;6.78;3.40;;;;;;;;;;4995015;28;20056;-78
2022/03/28 09:15:51;;;;;;;5.22;2.47;;;;;;;;;;5006181;28;20042;-78
2022/03/28 09:18:32;;;;;;;6.40;3.15;;;;;;;;;;5007413;28;20034;-78
2022/03/28 09:21:10;;;;;;;6.03;3.22;;;;;;;;;;5006528;28;20052;-75
2022/03/28 09:23:44;;;;;;;9.27;3.55;;;;;;;;;;5006900;28;20038;-75
2022/03/28 09:26:16;;;;;;;5.68;3.08;;;;;;;;;;5004317;28;20034;-75
2022/03/28 09:28:48;;;;;;;6.38;3.03;;;;;;;;;;5005875;28;20367;-75
2022/03/28 09:31:24;;;;;;;6.68;3.22;;;;;;;;;;4998916;28;20073;-78
2022/03/28 09:34:12;;;;;;;4.68;2.60;;;;;;;;;;5014103;28;20039;-78
2022/03/28 09:36:44;;;;;;;6.05;2.70;;;;;;;;;;5005082;28;20086;-78
2022/03/28 09:39:19;;;;;;;5.55;2.60;;;;;;;;;;5004868;28;20072;-78
2022/03/28 09:41:59;;;;;;;5.70;2.97;;;;;;;;;;5001973;28;20042;-75
2022/03/28 09:44:40;;;;;;;5.15;2.58;;;;;;;;;;5001113;28;20403;-75
2022/03/28 09:47:11;;;;;;;5.00;2.47;;;;;;;;;;5005609;28;20108;-79
2022/03/28 09:49:42;;;;;;;7.03;2.70;;;;;;;;;;4993929;28;20069;-79
2022/03/28 09:52:15;;;;;;;4.38;2.70;;;;;;;;;;4972315;28;20050;-78
2022/03/28 09:55:04;;;;;;;4.63;2.63;;;;;;;;;;5003062;28;20045;-78
2022/03/28 09:57:34;;;;;;;5.18;2.72;;;;;;;;;;5001239;28;20164;-79
2022/03/28 10:00:12;;;;;;;6.30;2.85;;;;;;;;;;4991587;28;20088;-78
2022/03/28 10:02:41;;;;;;;9.15;3.33;;;;;;;;;;5006171;28;20069;-75
2022/03/28 10:05:13;;;;;;;5.85;2.85;;;;;;;;;;4989919;28;20137;-75
2022/03/28 10:07:40;;;;;;;6.03;2.80;;;;;;;;;;5001500;28;20056;-75
2022/03/28 10:10:09;;;;;;;8.27;2.95;;;;;;;;;;5003995;28;20034;-75
2022/03/28 10:12:37;;;;;;;6.30;2.50;;;;;;;;;;4985873;28;20080;-75
2022/03/28 10:15:05;;;;;;;4.80;2.45;;;;;;;;;;5005835;28;20538;-79
2022/03/28 10:17:37;;;;;;;8.40;3.40;;;;;;;;;;4983044;28;20046;-75
2022/03/28 10:20:05;;;;;;;7.72;3.35;;;;;;;;;;5001477;28;20038;-75
2022/03/28 10:22:55;;;;;;;7.85;4.28;;;;;;;;;;5006127;28;20073;-75
2022/03/28 10:25:24;;;;;;;8.05;3.22;;;;;;;;;;5003348;28;20403;-75
2022/03/28 10:27:54;;;;;;;5.20;2.70;;;;;;;;;;5002047;28;20034;-76
2022/03/28 10:30:27;;;;;;;7.20;2.95;;;;;;;;;;5004977;28;20073;-79
2022/03/28 10:33:21;;;;;;;5.70;2.90;;;;;;;;;;5003404;28;20034;-78
2022/03/28 10:36:05;;;;;;;7.00;2.72;;;;;;;;;;5000883;28;20121;-78
2022/03/28 10:38:32;;;;;;;6.03;3.00;;;;;;;;;;4998690;28;20057;-79
2022/03/28 10:41:03;;;;;;;6.53;2.70;;;;;;;;;;5000742;28;20384;-75
2022/03/28 10:43:33;;;;;;;6.88;2.90;;;;;;;;;;5002802;28;20732;-76
2022/03/28 10:46:11;;;;;;;5.60;2.55;;;;;;;;;;5005837;28;20038;-76
2022/03/28 10:48:53;;;;;;;5.55;2.47;;;;;;;;;;5003594;28;20088;-79
2022/03/28 10:51:30;;;;;;;5.70;2.92;;;;;;;;;;5001889;28;20046;-79
2022/03/28 10:54:05;;;;;;;8.63;3.42;;;;;;;;;;5006149;28;20065;-78
2022/03/28 10:56:34;;;;;;;6.57;2.95;;;;;;;;;;5002075;28;20056;-78
2022/03/28 10:59:07;;;;;;;5.65;2.72;;;;;;;;;;5002975;28;20034;-75
2022/03/28 11:01:42;;;;;;;7.30;3.22;;;;;;;;;;4976526;28;20050;-79
2022/03/28 11:04:15;;;;;;;7.07;3.50;;;;;;;;;;4999717;28;20069;-79
2022/03/28 11:06:49;;;;;;;5.20;3.05;;;;;;;;;;5015242;28;20084;-79
2022/03/28 11:09:41;;;;;;;11.07;3.72;;;;;;;;;;5008965;28;20054;-79
2022/03/28 11:12:32;;;;;;;8.52;3.80;;;;;;;;;;5003464;28;20046;-78
2022/03/28 11:15:15;;;;;;;8.30;3.30;;;;;;;;;;5005623;28;20100;-75
2022/03/28 11:18:02;;;;;;;7.35;3.80;;;;;;;;;;4988668;28;20065;-79
2022/03/28 11:20:46;;;;;;;9.32;4.05;;;;;;;;;;4999464;28;20042;-78
2022/03/28 11:23:18;;;;;;;9.65;4.35;;;;;;;;;;5005582;28;20491;-79
2022/03/28 11:25:53;;;;;;;8.02;3.95;;;;;;;;;;5004985;28;20077;-76
2022/03/28 11:28:23;;;;;;;7.70;4.30;;;;;;;;;;5003688;28;20038;-76
2022/03/28 11:31:03;;;;;;;9.10;5.03;;;;;;;;;;5001601;28;20513;-79
2022/03/28 11:33:33;;;;;;;6.72;4.25;;;;;;;;;;5019138;28;20375;-75
2022/03/28 11:36:22;;;;;;;8.23;4.82;;;;;;;;;;5004814;28;20042;-75
2022/03/28 11:38:53;;;;;;;7.95;4.95;;;;;;;;;;5003710;28;20044;-75
2022/03/28 11:41:22;;;;;;;9.90;6.30;;;;;;;;;;5004469;28;20048;-75
2022/03/28 11:43:52;;;;;;;13.15;7.20;;;;;;;;;;5003786;28;20041;-75
2022/03/28 11:46:24;;;;;;;10.75;6.18;;;;;;;;;;5006397;28;20034;-75
2022/03/28 11:49:13;;;;;;;8.52;5.90;;;;;;;;;;4985806;28;20050;-79
2022/03/28 11:51:42;;;;;;;9.68;5.22;;;;;;;;;;5002047;28;20109;-79
2022/03/28 11:54:12;;;;;;;8.05;5.00;;;;;;;;;;5003851;28;20042;-78
2022/03/28 11:59:31;;;;;;;8.02;3.88;;;;;;;;;;5007249;28;20096;-78
2022/03/28 12:02:00;;;;;;;7.22;3.15;;;;;;;;;;4994353;28;20561;-78
2022/03/28 12:04:29;;;;;;;8.27;3.40;;;;;;;;;;5005265;28;20057;-79
2022/03/28 12:06:58;;;;;;;7.97;3.28;;;;;;;;;;5009245;28;20057;-78
2022/03/28 12:09:26;;;;;;;13.88;3.85;;;;;;;;;;5004144;28;20441;-78
2022/03/28 12:11:56;;;;;;;6.60;3.65;;;;;;;;;;5008153;28;20046;-78
2022/03/28 12:14:24;;;;;;;9.05;3.50;;;;;;;;;;4995881;28;20518;-78
2022/03/28 12:16:55;;;;;;;9.93;3.72;;;;;;;;;;5008288;28;20060;-79
2022/03/28 12:19:27;;;;;;;7.00;3.38;;;;;;;;;;5007952;28;20054;-78
2022/03/28 12:21:57;;;;;;;6.15;3.63;;;;;;;;;;5005053;28;20041;-79
2022/03/28 12:24:25;;;;;;;8.02;3.65;;;;;;;;;;5002349;28;20057;-79
2022/03/28 12:26:54;;;;;;;6.40;3.67;;;;;;;;;;4980132;28;20069;-78
2022/03/28 12:29:22;;;;;;;7.00;3.90;;;;;;;;;;5004112;28;20030;-79
2022/03/28 12:31:50;;;;;;;9.75;3.97;;;;;;;;;;5001971;28;20069;-79
2022/03/28 12:34:19;;;;;;;7.03;3.60;;;;;;;;;;5003706;28;20388;-79
2022/03/28 12:36:46;;;;;;;8.40;4.25;;;;;;;;;;5001355;28;20038;-79
2022/03/28 12:39:17;;;;;;;7.20;4.10;;;;;;;;;;4981012;28;20046;-77
2022/03/28 12:41:47;;;;;;;9.43;3.80;;;;;;;;;;5003358;28;20387;-76
2022/03/28 12:44:20;;;;;;;12.88;4.78;;;;;;;;;;4987434;28;20510;-77
2022/03/28 12:46:49;;;;;;;7.80;4.05;;;;;;;;;;4977599;28;20136;-77
2022/03/28 12:49:18;;;;;;;8.27;4.35;;;;;;;;;;5004867;28;20107;-78
2022/03/28 12:51:48;;;;;;;9.50;4.53;;;;;;;;;;4972919;28;20049;-79
2022/03/28 12:54:22;;;;;;;8.40;4.88;;;;;;;;;;4950356;28;20061;-79
2022/03/28 12:56:56;;;;;;;7.60;4.15;;;;;;;;;;4982532;28;21476;-79
2022/03/28 12:59:33;;;;;;;8.23;4.38;;;;;;;;;;5001900;28;20049;-80
2022/03/28 13:02:05;;;;;;;10.18;4.50;;;;;;;;;;4992461;28;20045;-78
2022/03/28 13:04:51;;;;;;;8.57;4.32;;;;;;;;;;4987511;28;20132;-77
2022/03/28 13:07:25;;;;;;;9.30;5.10;;;;;;;;;;5000894;28;20061;-77
2022/03/28 13:09:54;;;;;;;9.20;5.20;;;;;;;;;;5006191;28;20042;-76
2022/03/28 13:12:38;;;;;;;12.15;5.13;;;;;;;;;;5008493;28;20331;-79
2022/03/28 13:15:18;;;;;;;10.82;4.30;;;;;;;;;;4990138;28;20560;-78
2022/03/28 13:17:48;;;;;;;8.02;4.47;;;;;;;;;;4993174;28;20534;-79
2022/03/28 13:20:19;;;;;;;15.95;4.63;;;;;;;;;;5003060;28;20105;-79
2022/03/28 13:22:47;;;;;;;9.25;5.05;;;;;;;;;;4985715;28;20046;-76
2022/03/28 13:25:19;;;;;;;9.80;5.18;;;;;;;;;;5002251;28;20049;-75
2022/03/28 13:28:02;;;;;;;8.98;4.57;;;;;;;;;;5005934;28;20115;-78
2022/03/28 13:30:41;;;;;;;7.90;4.65;;;;;;;;;;5011174;28;20050;-76
2022/03/28 13:33:12;;;;;;;11.25;4.95;;;;;;;;;;5013057;28;20044;-76
2022/03/28 13:35:46;;;;;;;7.90;4.13;;;;;;;;;;5008401;28;20044;-78
2022/03/28 13:38:16;;;;;;;10.88;4.85;;;;;;;;;;5011911;28;20042;-79
2022/03/28 13:40:48;;;;;;;11.13;5.13;;;;;;;;;;4961900;28;20048;-77
2022/03/28 13:43:17;;;;;;;8.68;4.93;;;;;;;;;;5003584;28;20992;-76
2022/03/28 13:45:47;;;;;;;8.73;5.03;;;;;;;;;;4995074;28;20045;-78
2022/03/28 13:48:16;;;;;;;8.23;4.38;;;;;;;;;;4994239;28;20111;-79
2022/03/28 13:50:48;;;;;;;7.97;4.43;;;;;;;;;;5004883;28;20052;-78
2022/03/28 13:53:40;;;;;;;10.65;4.97;;;;;;;;;;4980075;28;20037;-78
2022/03/28 13:56:09;;;;;;;11.00;5.07;;;;;;;;;;4996151;28;20059;-75
2022/03/28 13:58:36;;;;;;;10.43;4.53;;;;;;;;;;4989778;28;20060;-76
2022/03/28 14:01:04;;;;;;;10.48;4.30;;;;;;;;;;4976432;28;20076;-78
2022/03/28 14:03:32;;;;;;;9.80;4.57;;;;;;;;;;4973066;28;20042;-78
2022/03/28 14:06:02;;;;;;;9.35;4.82;;;;;;;;;;5006511;28;20065;-75
2022/03/28 14:08:34;;;;;;;9.82;5.45;;;;;;;;;;5023231;28;20076;-77
2022/03/28 14:11:06;;;;;;;9.20;4.78;;;;;;;;;;5010199;28;20041;-77
2022/03/28 14:13:34;;;;;;;10.82;4.88;;;;;;;;;;5007439;28;20046;-77
2022/03/28 14:16:03;;;;;;;8.20;4.43;;;;;;;;;;4989800;28;20056;-75
2022/03/28 14:18:30;;;;;;;10.63;4.55;;;;;;;;;;5008914;28;20060;-78
2022/03/28 14:21:01;;;;;;;12.88;4.60;;;;;;;;;;5006414;28;20415;-75
2022/03/28 14:23:28;;;;;;;11.32;5.53;;;;;;;;;;5003742;28;20042;-75
2022/03/28 14:26:01;;;;;;;12.23;6.05;;;;;;;;;;5008861;28;20120;-78
2022/03/28 14:28:28;;;;;;;12.13;5.65;;;;;;;;;;5009519;28;20048;-78
2022/03/28 14:30:56;;;;;;;9.13;5.15;;;;;;;;;;5006792;28;20046;-75
2022/03/28 14:33:24;;;;;;;9.93;5.82;;;;;;;;;;4990862;28;20058;-75
2022/03/28 14:35:52;;;;;;;10.43;5.85;;;;;;;;;;5007333;28;20131;-75
2022/03/28 14:38:20;;;;;;;13.23;5.65;;;;;;;;;;4983592;28;20076;-77
2022/03/28 14:40:48;;;;;;;11.55;5.97;;;;;;;;;;4992453;28;20073;-77
2022/03/28 14:43:18;;;;;;;10.05;5.72;;;;;;;;;;5003456;28;20044;-77
2022/03/28 14:48:33;;;;;;;12.38;5.85;;;;;;;;;;4993098;28;20076;-78
2022/03/28 14:51:00;;;;;;;13.93;5.50;;;;;;;;;;4994746;28;20050;-78
2022/03/28 14:53:28;;;;;;;12.02;5.63;;;;;;;;;;5004224;28;20205;-78
2022/03/28 14:55:56;;;;;;;12.52;5.47;;;;;;;;;;5007261;28;20471;-75
2022/03/28 14:58:44;;;;;;;11.50;5.57;;;;;;;;;;4996041;28;20057;-74
2022/03/28 15:01:14;;;;;;;11.45;5.05;;;;;;;;;;5003076;28;20277;-75
2022/03/28 15:03:42;;;;;;;10.65;5.45;;;;;;;;;;4986234;28;20201;-74
2022/03/28 15:06:14;;;;;;;12.18;5.10;;;;;;;;;;4994601;28;20049;-75
2022/03/28 15:08:42;;;;;;;10.23;5.30;;;;;;;;;;4996947;28;20126;-74
2022/03/28 15:11:13;;;;;;;10.13;5.45;;;;;;;;;;5010560;28;20069;-74
2022/03/28 15:13:44;;;;;;;11.65;5.40;;;;;;;;;;5007137;28;20054;-74
2022/03/28 15:16:13;;;;;;;12.13;5.00;;;;;;;;;;5007094;28;20429;-74
2022/03/28 15:18:41;;;;;;;11.70;5.60;;;;;;;;;;5005377;28;20069;-74
2022/03/28 15:21:11;;;;;;;17.92;6.00;;;;;;;;;;4996634;28;20049;-77
2022/03/28 15:23:38;;;;;;;10.85;5.22;;;;;;;;;;5025024;28;20041;-74
2022/03/28 15:26:11;;;;;;;10.75;5.53;;;;;;;;;;5007314;28;20037;-75
2022/03/28 15:28:39;;;;;;;10.52;5.30;;;;;;;;;;4998799;28;20375;-75
2022/03/28 15:31:27;;;;;;;10.95;5.85;;;;;;;;;;5004674;28;20064;-74
2022/03/28 15:34:00;;;;;;;11.88;5.32;;;;;;;;;;5007405;28;20045;-77
2022/03/28 15:36:31;;;;;;;11.38;5.30;;;;;;;;;;5007178;28;20076;-77
2022/03/28 15:39:00;;;;;;;10.82;5.13;;;;;;;;;;4976430;28;20045;-77
2022/03/28 15:41:29;;;;;;;9.30;4.80;;;;;;;;;;4996769;28;20042;-77
2022/03/28 15:43:59;;;;;;;10.05;5.53;;;;;;;;;;5005829;28;20044;-77
2022/03/28 15:46:26;;;;;;;8.75;4.50;;;;;;;;;;5000770;28;20054;-78
2022/03/28 15:48:54;;;;;;;12.10;4.65;;;;;;;;;;5008908;28;20042;-78
2022/03/28 15:51:23;;;;;;;9.23;4.25;;;;;;;;;;5006993;28;20145;-78
2022/03/28 15:53:51;;;;;;;10.73;4.32;;;;;;;;;;4980968;28;20161;-77
2022/03/28 15:56:19;;;;;;;10.70;4.93;;;;;;;;;;5012324;28;20073;-77
2022/03/28 15:58:47;;;;;;;9.65;4.65;;;;;;;;;;5005969;28;20052;-78
2022/03/28 16:04:09;;;;;;;11.57;5.65;;;;;;;;;;5009634;28;20069;-77
2022/03/28 16:06:38;;;;;;;11.00;4.82;;;;;;;;;;5009688;28;20081;-78
2022/03/28 16:09:08;;;;;;;12.45;5.05;;;;;;;;;;5009354;28;20145;-75
2022/03/28 16:11:37;;;;;;;12.25;5.05;;;;;;;;;;5007673;28;21369;-75
2022/03/28 16:14:08;;;;;;;9.68;5.18;;;;;;;;;;5007172;28;20045;-78
2022/03/28 16:16:38;;;;;;;9.38;4.18;;;;;;;;;;5011450;28;20173;-77
2022/03/28 16:19:11;;;;;;;9.45;4.03;;;;;;;;;;5009250;28;20142;-77
2022/03/28 16:21:40;;;;;;;10.90;4.85;;;;;;;;;;4995761;28;20134;-77
2022/03/28 16:24:10;;;;;;;9.23;4.28;;;;;;;;;;5007385;28;20204;-77
2022/03/28 16:26:39;;;;;;;11.02;4.65;;;;;;;;;;5009902;28;20121;-75
2022/03/28 16:29:09;;;;;;;9.40;4.88;;;;;;;;;;5006576;28;20037;-77
2022/03/28 16:31:40;;;;;;;8.52;4.38;;;;;;;;;;5012000;28;20045;-77
2022/03/28 16:34:08;;;;;;;11.18;5.18;;;;;;;;;;5003032;28;20524;-77
2022/03/28 16:36:37;;;;;;;11.48;4.95;;;;;;;;;;5009636;28;20038;-77
2022/03/28 16:39:12;;;;;;;11.10;4.95;;;;;;;;;;5010062;28;20069;-78
2022/03/28 16:41:42;;;;;;;12.73;5.10;;;;;;;;;;5008264;28;20544;-75
2022/03/28 16:44:10;;;;;;;12.43;5.97;;;;;;;;;;5006506;28;20057;-73
2022/03/28 16:46:38;;;;;;;11.73;4.95;;;;;;;;;;5009768;28;20391;-78
2022/03/28 16:49:07;;;;;;;11.32;4.53;;;;;;;;;;4999104;28;20106;-76
2022/03/28 16:51:39;;;;;;;10.73;5.00;;;;;;;;;;4993786;28;20141;-74
2022/03/28 16:54:10;;;;;;;12.65;6.50;;;;;;;;;;4982879;28;20380;-80
2022/03/28 16:56:39;;;;;;;10.75;4.75;;;;;;;;;;5007662;28;20042;-77
2022/03/28 16:59:09;;;;;;;11.85;5.88;;;;;;;;;;4998253;28;20045;-77
2022/03/28 17:01:41;;;;;;;13.85;6.40;;;;;;;;;;4986766;28;20046;-78
2022/03/28 17:04:10;;;;;;;11.95;5.80;;;;;;;;;;4984092;28;20058;-79
2022/03/28 17:06:40;;;;;;;13.38;4.75;;;;;;;;;;4994472;28;20077;-76
2022/03/28 17:09:12;;;;;;;11.88;5.65;;;;;;;;;;5008726;28;20069;-79
2022/03/28 17:11:50;;;;;;;12.73;6.20;;;;;;;;;;5011297;28;20037;-78
2022/03/28 17:14:19;;;;;;;12.23;5.93;;;;;;;;;;5009036;28;20046;-78
2022/03/28 17:16:46;;;;;;;11.30;5.97;;;;;;;;;;5008828;28;20045;-76
2022/03/28 17:19:14;;;;;;;10.55;5.78;;;;;;;;;;5009133;28;20144;-76
2022/03/28 17:21:48;;;;;;;13.85;5.82;;;;;;;;;;4991151;28;20046;-79
2022/03/28 17:24:20;;;;;;;11.70;6.47;;;;;;;;;;5000969;28;20048;-76
2022/03/28 17:26:48;;;;;;;12.82;6.60;;;;;;;;;;4990661;28;20048;-79
2022/03/28 17:29:16;;;;;;;9.15;5.18;;;;;;;;;;5000021;28;20050;-78
2022/03/28 17:31:44;;;;;;;10.27;5.57;;;;;;;;;;5007270;28;20042;-77
2022/03/28 17:34:14;;;;;;;12.90;5.88;;;;;;;;;;4992197;28;20054;-78
2022/03/28 17:36:44;;;;;;;12.43;6.18;;;;;;;;;;5015398;28;20045;-76
2022/03/28 17:39:14;;;;;;;18.25;8.13;;;;;;;;;;5024363;28;20049;-78
2022/03/28 17:41:47;;;;;;;19.23;6.97;;;;;;;;;;5007876;28;20040;-78
2022/03/28 17:44:17;;;;;;;13.00;6.00;;;;;;;;;;5006028;28;20041;-78
2022/03/28 17:46:49;;;;;;;20.70;8.57;;;;;;;;;;5006059;28;20045;-79
2022/03/28 17:49:20;;;;;;;21.42;8.43;;;;;;;;;;4990615;28;20057;-77
2022/03/28 17:51:52;;;;;;;26.70;9.25;;;;;;;;;;4993373;28;20039;-77
2022/03/28 17:54:26;;;;;;;21.00;8.52;;;;;;;;;;4982901;28;20448;-77
2022/03/28 17:56:54;;;;;;;25.40;8.63;;;;;;;;;;5004789;28;20038;-78
2022/03/28 17:59:23;;;;;;;24.58;8.95;;;;;;;;;;4982508;28;22541;-76